Time;durP1;ratioP1;P1;durP2;ratioP2;P2;SDS_P1;SDS_P2;PMS_P1;PMS_P2;Temp;Humidity;BMP_temperature;BMP_pressure;BME280_temperature;BME280_humidity;BME280_pressure;Samples;Min_cycle;Max_cycle;Signal;HPM_P1;HPM_P2
2023/05/31 00:02:25;;;;;;;7.70;4.65;;;12.00;99.90;;;;;;5075970;28;20470;-60
2023/05/31 00:04:50;;;;;;;11.18;3.95;;;12.00;99.90;;;;;;5084643;28;20851;-58
2023/05/31 00:07:16;;;;;;;8.52;3.60;;;12.00;99.90;;;;;;5090777;28;20028;-58
2023/05/31 00:09:42;;;;;;;8.05;3.50;;;11.90;99.90;;;;;;5086666;28;20042;-60
2023/05/31 00:12:08;;;;;;;10.60;3.83;;;11.90;99.90;;;;;;5089477;28;20070;-59
2023/05/31 00:14:34;;;;;;;6.93;3.55;;;11.90;99.90;;;;;;5067230;28;20036;-58
2023/05/31 00:16:59;;;;;;;7.10;4.13;;;11.80;99.90;;;;;;5050643;28;20045;-60
2023/05/31 00:19:25;;;;;;;9.50;3.45;;;11.80;99.90;;;;;;5083917;28;20040;-60
2023/05/31 00:21:51;;;;;;;4.85;3.15;;;11.80;99.90;;;;;;5079034;28;20121;-60
2023/05/31 00:24:17;;;;;;;7.82;4.05;;;11.80;99.90;;;;;;5070464;28;20061;-59
2023/05/31 00:26:42;;;;;;;7.60;3.50;;;11.70;99.90;;;;;;5045393;28;20119;-58
2023/05/31 00:29:08;;;;;;;9.73;3.75;;;11.70;99.90;;;;;;5082407;28;20131;-60
2023/05/31 00:31:34;;;;;;;7.20;3.70;;;11.70;99.90;;;;;;5078086;28;20074;-59
2023/05/31 00:34:00;;;;;;;8.35;3.67;;;11.70;99.90;;;;;;5087131;28;20032;-60
2023/05/31 00:36:26;;;;;;;6.80;3.30;;;11.60;99.90;;;;;;5086321;28;20394;-59
2023/05/31 00:38:51;;;;;;;9.13;3.70;;;11.60;99.90;;;;;;5080521;28;20024;-59
2023/05/31 00:41:17;;;;;;;7.72;3.42;;;11.50;99.90;;;;;;5085646;28;20078;-60
2023/05/31 00:43:43;;;;;;;5.85;3.63;;;11.50;99.90;;;;;;5067189;28;20044;-60
2023/05/31 00:46:19;;;;;;;10.40;4.07;;;11.50;99.90;;;;;;5067280;28;20048;-60
2023/05/31 00:48:45;;;;;;;6.68;3.95;;;11.40;99.90;;;;;;5080593;28;20036;-60
2023/05/31 00:51:12;;;;;;;7.40;3.55;;;11.40;99.90;;;;;;5086187;28;20398;-58
2023/05/31 00:53:38;;;;;;;9.60;3.67;;;11.40;99.90;;;;;;5064595;28;20047;-59
2023/05/31 00:56:05;;;;;;;11.88;3.80;;;11.30;99.90;;;;;;5066604;28;20055;-58
2023/05/31 00:58:34;;;;;;;6.90;3.60;;;11.30;99.90;;;;;;5082256;28;20468;-60
2023/05/31 01:01:00;;;;;;;9.23;3.63;;;11.20;99.90;;;;;;5088872;28;20032;-59
2023/05/31 01:03:26;;;;;;;7.30;3.90;;;11.30;99.90;;;;;;5087126;28;20056;-58
2023/05/31 01:05:52;;;;;;;7.07;3.85;;;11.20;99.90;;;;;;5073434;28;20062;-59
2023/05/31 01:08:19;;;;;;;7.75;3.40;;;11.20;99.90;;;;;;5088247;28;20048;-60
2023/05/31 01:10:45;;;;;;;9.15;4.43;;;11.10;99.90;;;;;;5090355;28;20271;-60
2023/05/31 01:13:50;;;;;;;9.73;4.15;;;11.10;99.90;;;;;;5086694;28;20029;-60
2023/05/31 01:16:25;;;;;;;9.25;3.70;;;11.00;99.90;;;;;;5029929;28;20518;-60
2023/05/31 01:19:05;;;;;;;7.07;3.65;;;10.90;99.90;;;;;;5091581;28;20553;-60
2023/05/31 01:21:52;;;;;;;8.00;3.80;;;10.90;99.90;;;;;;5070779;28;20237;-58
2023/05/31 01:25:07;;;;;;;10.20;3.33;;;10.90;99.90;;;;;;5086333;28;20510;-59
2023/05/31 01:27:34;;;;;;;9.18;3.72;;;10.80;99.90;;;;;;5006648;28;20059;-60
2023/05/31 01:30:01;;;;;;;11.55;4.30;;;10.80;99.90;;;;;;5070519;28;20048;-60
2023/05/31 01:32:27;;;;;;;6.10;3.50;;;10.70;99.90;;;;;;5088144;28;20039;-58
2023/05/31 01:34:53;;;;;;;10.18;4.53;;;10.80;99.90;;;;;;5072176;28;20093;-60
2023/05/31 01:37:19;;;;;;;7.72;3.85;;;10.80;99.90;;;;;;5089208;28;20048;-58
2023/05/31 01:39:46;;;;;;;8.35;4.50;;;10.80;99.90;;;;;;5087903;28;20449;-58
2023/05/31 01:42:13;;;;;;;9.05;4.07;;;10.80;99.90;;;;;;5090625;28;20527;-58
2023/05/31 01:44:41;;;;;;;7.80;3.90;;;10.80;99.90;;;;;;5089973;28;20050;-60
2023/05/31 01:47:08;;;;;;;8.00;3.97;;;10.70;99.90;;;;;;5088819;28;20039;-59
2023/05/31 01:49:36;;;;;;;12.77;5.32;;;10.70;99.90;;;;;;5091827;28;20063;-58
2023/05/31 01:52:10;;;;;;;11.65;5.47;;;10.70;99.90;;;;;;5073918;28;20123;-59
2023/05/31 01:54:36;;;;;;;13.80;5.80;;;10.70;99.90;;;;;;5093046;28;20039;-60
2023/05/31 01:57:05;;;;;;;14.57;5.57;;;10.70;99.90;;;;;;5071580;28;20043;-58
2023/05/31 01:59:35;;;;;;;11.10;4.65;;;10.70;99.90;;;;;;5089110;28;20469;-59
2023/05/31 02:02:03;;;;;;;11.05;5.03;;;10.70;99.90;;;;;;5055946;28;20033;-59
2023/05/31 02:04:28;;;;;;;13.40;6.30;;;10.70;99.90;;;;;;5088629;28;20430;-60
2023/05/31 02:06:54;;;;;;;9.02;4.82;;;10.70;99.90;;;;;;5088770;28;20123;-60
2023/05/31 02:09:21;;;;;;;9.93;5.53;;;10.70;99.90;;;;;;5084008;28;20040;-58
2023/05/31 02:11:47;;;;;;;14.10;5.28;;;10.70;99.90;;;;;;5066408;28;20051;-59
2023/05/31 02:14:12;;;;;;;16.08;6.70;;;10.70;99.90;;;;;;5088989;28;20115;-58
2023/05/31 02:16:38;;;;;;;14.45;5.35;;;10.70;99.90;;;;;;5085068;28;20116;-60
2023/05/31 02:19:04;;;;;;;12.13;5.97;;;10.70;99.90;;;;;;5083771;28;20242;-61
2023/05/31 02:21:35;;;;;;;10.77;5.50;;;10.70;99.90;;;;;;5087035;28;20028;-60
2023/05/31 02:24:01;;;;;;;11.80;5.35;;;10.70;99.90;;;;;;5071076;28;20044;-61
2023/05/31 02:26:26;;;;;;;10.77;5.72;;;10.70;99.90;;;;;;5086674;28;20498;-61
2023/05/31 02:28:52;;;;;;;13.27;6.45;;;10.70;99.90;;;;;;5086906;28;20048;-60
2023/05/31 02:31:18;;;;;;;17.48;6.07;;;10.60;99.90;;;;;;5089966;28;20040;-60
2023/05/31 02:33:44;;;;;;;16.13;6.35;;;10.60;99.90;;;;;;5086638;28;20032;-61
2023/05/31 02:36:11;;;;;;;10.70;5.63;;;10.60;99.90;;;;;;5065270;28;20564;-61
2023/05/31 02:38:38;;;;;;;11.05;5.97;;;10.60;99.90;;;;;;5064023;28;20039;-60
2023/05/31 02:41:03;;;;;;;11.00;6.07;;;10.60;99.90;;;;;;5055884;28;20043;-61
2023/05/31 02:43:30;;;;;;;14.85;6.70;;;10.50;99.90;;;;;;5078638;28;20043;-61
2023/05/31 02:45:56;;;;;;;11.88;6.80;;;10.50;99.90;;;;;;5068791;28;20040;-60
2023/05/31 02:48:22;;;;;;;12.57;6.28;;;10.50;99.90;;;;;;5047331;28;20040;-60
2023/05/31 02:50:48;;;;;;;15.95;6.80;;;10.50;99.90;;;;;;5070144;28;20478;-60
2023/05/31 02:53:13;;;;;;;16.95;7.97;;;10.50;99.90;;;;;;5087849;28;20044;-60
2023/05/31 02:55:39;;;;;;;11.18;6.35;;;10.50;99.90;;;;;;5063119;28;20063;-61
2023/05/31 02:58:06;;;;;;;18.80;7.38;;;10.50;99.90;;;;;;5088837;28;20035;-60
2023/05/31 03:00:33;;;;;;;11.07;6.72;;;10.40;99.90;;;;;;5088502;28;20074;-61
2023/05/31 03:02:58;;;;;;;14.32;7.28;;;10.40;99.90;;;;;;5069130;28;20399;-61
2023/05/31 03:05:26;;;;;;;10.75;5.90;;;10.40;99.90;;;;;;5066812;28;20051;-61
2023/05/31 03:07:51;;;;;;;11.82;6.00;;;10.40;99.90;;;;;;5087526;28;20123;-59
2023/05/31 03:10:17;;;;;;;18.50;7.40;;;10.40;99.90;;;;;;5079849;28;20181;-58
2023/05/31 03:12:43;;;;;;;13.02;6.97;;;10.40;99.90;;;;;;5069180;28;20036;-61
2023/05/31 03:15:09;;;;;;;12.35;6.20;;;10.30;99.90;;;;;;5069542;28;20043;-61
2023/05/31 03:17:37;;;;;;;13.35;6.07;;;10.30;99.90;;;;;;5087696;28;20044;-60
2023/05/31 03:20:09;;;;;;;12.18;6.25;;;10.30;99.90;;;;;;5069252;28;20047;-60
2023/05/31 03:22:35;;;;;;;13.18;6.40;;;10.30;99.90;;;;;;5084243;28;20066;-60
2023/05/31 03:25:03;;;;;;;16.52;7.00;;;10.30;99.90;;;;;;5080931;28;20334;-61
2023/05/31 03:27:29;;;;;;;14.50;6.47;;;10.30;99.90;;;;;;5077877;28;20044;-59
2023/05/31 03:29:55;;;;;;;18.42;7.43;;;10.30;99.90;;;;;;5085958;28;20115;-61
2023/05/31 03:32:21;;;;;;;17.02;6.97;;;10.30;99.90;;;;;;5065895;28;20151;-60
2023/05/31 03:34:47;;;;;;;17.50;7.63;;;10.30;99.90;;;;;;5064524;28;20535;-60
2023/05/31 03:37:13;;;;;;;14.98;7.28;;;10.30;99.90;;;;;;5074530;28;20115;-59
2023/05/31 03:39:38;;;;;;;13.35;6.85;;;10.30;99.90;;;;;;5085050;28;20082;-61
2023/05/31 03:42:06;;;;;;;14.02;7.18;;;10.30;99.90;;;;;;5069899;28;20047;-60
2023/05/31 03:44:31;;;;;;;17.30;6.93;;;10.30;99.90;;;;;;5070338;28;20044;-61
2023/05/31 03:46:58;;;;;;;16.08;7.35;;;10.30;99.90;;;;;;5090685;28;20111;-60
2023/05/31 03:49:23;;;;;;;16.70;7.13;;;10.30;99.90;;;;;;5084815;28;20040;-59
2023/05/31 03:51:49;;;;;;;15.13;7.03;;;10.40;99.90;;;;;;5082305;28;20131;-60
2023/05/31 03:54:15;;;;;;;14.15;7.30;;;10.40;99.90;;;;;;5068996;28;20032;-59
2023/05/31 03:56:40;;;;;;;16.60;7.60;;;10.40;99.90;;;;;;5066816;28;20505;-59
2023/05/31 03:59:06;;;;;;;13.73;6.82;;;10.40;99.90;;;;;;5087125;28;20061;-61
2023/05/31 04:01:32;;;;;;;12.35;7.15;;;10.40;99.90;;;;;;5058045;28;20322;-61
2023/05/31 04:03:58;;;;;;;14.02;7.15;;;10.40;99.90;;;;;;5098922;22;20122;-57
2023/05/31 04:06:26;;;;;;;17.25;7.25;;;10.40;99.90;;;;;;5018087;28;20056;-55
2023/05/31 04:08:52;;;;;;;17.48;7.22;;;10.40;99.90;;;;;;5050581;28;20048;-55
2023/05/31 04:22:16;;;;;;;14.35;7.22;;;10.50;99.90;;;;;;5054000;28;20059;-63
2023/05/31 04:24:41;;;;;;;14.15;6.47;;;10.50;99.90;;;;;;5068389;28;20040;-63
2023/05/31 04:27:07;;;;;;;12.10;6.00;;;10.50;99.90;;;;;;5060191;28;20039;-64
2023/05/31 04:29:33;;;;;;;14.73;6.50;;;10.60;99.90;;;;;;5045922;28;20036;-64
2023/05/31 04:31:59;;;;;;;14.00;6.80;;;10.60;99.90;;;;;;5048654;28;20040;-63
2023/05/31 04:34:26;;;;;;;13.43;8.32;;;10.70;99.90;;;;;;5027012;28;20044;-63
2023/05/31 04:36:52;;;;;;;12.05;7.05;;;10.70;99.90;;;;;;5042599;28;20047;-62
2023/05/31 04:39:21;;;;;;;13.70;6.82;;;10.70;99.90;;;;;;5064731;28;20071;-63
2023/05/31 04:41:48;;;;;;;12.40;7.32;;;10.80;99.90;;;;;;5066144;28;20449;-64
2023/05/31 04:44:14;;;;;;;14.70;6.97;;;10.80;99.90;;;;;;5066263;28;20102;-63
2023/05/31 04:46:42;;;;;;;15.73;7.68;;;10.80;99.90;;;;;;5063297;28;20040;-63
2023/05/31 04:49:09;;;;;;;15.18;7.15;;;10.90;99.90;;;;;;5071698;28;20579;-63
2023/05/31 04:51:35;;;;;;;10.07;6.20;;;10.90;99.90;;;;;;5062104;28;20153;-64
2023/05/31 04:54:02;;;;;;;11.85;6.88;;;11.00;99.90;;;;;;5069338;28;20071;-63
2023/05/31 04:56:27;;;;;;;15.00;7.03;;;11.10;99.90;;;;;;5066679;28;20106;-63
2023/05/31 04:58:53;;;;;;;14.68;7.47;;;11.10;99.90;;;;;;5047425;28;20195;-63
2023/05/31 05:01:19;;;;;;;15.60;7.60;;;11.20;99.90;;;;;;5067177;28;20070;-64
2023/05/31 05:03:45;;;;;;;18.63;7.97;;;11.20;99.90;;;;;;5065139;28;20078;-63
2023/05/31 05:06:18;;;;;;;16.10;7.93;;;11.40;99.90;;;;;;5041186;28;20485;-63
2023/05/31 05:08:45;;;;;;;14.90;6.60;;;11.40;99.90;;;;;;5065873;28;20044;-62
2023/05/31 05:11:11;;;;;;;21.25;7.43;;;11.50;99.90;;;;;;5066996;28;20066;-62
2023/05/31 05:13:37;;;;;;;19.20;8.77;;;11.60;99.90;;;;;;5071630;28;20036;-63
2023/05/31 05:16:03;;;;;;;14.13;6.90;;;11.70;99.90;;;;;;5064917;28;20113;-63
2023/05/31 05:18:30;;;;;;;13.75;7.30;;;11.70;99.90;;;;;;5050884;28;20048;-63
2023/05/31 05:20:56;;;;;;;13.95;7.65;;;11.80;99.90;;;;;;5073407;28;20075;-63
2023/05/31 05:23:22;;;;;;;19.17;8.77;;;11.90;99.90;;;;;;5074054;28;20101;-63
2023/05/31 05:25:48;;;;;;;21.60;8.30;;;12.00;99.90;;;;;;5064939;28;20048;-63
2023/05/31 05:28:14;;;;;;;18.67;8.10;;;12.00;99.90;;;;;;5075399;28;20475;-63
2023/05/31 05:30:40;;;;;;;19.92;8.10;;;12.10;99.90;;;;;;5040795;28;20052;-63
2023/05/31 05:33:06;;;;;;;13.93;8.10;;;12.20;99.90;;;;;;5061171;28;20301;-63
2023/05/31 05:35:33;;;;;;;17.55;7.60;;;12.30;99.90;;;;;;5065665;28;20068;-62
2023/05/31 05:37:59;;;;;;;19.60;8.98;;;12.40;99.90;;;;;;5069037;28;20121;-63
2023/05/31 05:40:25;;;;;;;15.45;8.27;;;12.50;99.90;;;;;;5064055;28;20044;-63
2023/05/31 05:42:53;;;;;;;21.73;8.93;;;12.60;99.90;;;;;;5065429;28;20034;-63
2023/05/31 05:45:18;;;;;;;15.07;8.68;;;12.70;99.90;;;;;;5061092;28;20594;-63
2023/05/31 05:47:45;;;;;;;19.40;8.98;;;12.80;99.90;;;;;;5042586;28;20032;-62
2023/05/31 05:50:14;;;;;;;19.42;7.95;;;12.90;99.90;;;;;;5067629;28;20111;-63
2023/05/31 05:52:39;;;;;;;15.48;7.68;;;13.00;99.90;;;;;;5063895;28;20444;-64
2023/05/31 05:55:05;;;;;;;14.65;7.60;;;13.10;99.90;;;;;;5065310;28;20051;-64
2023/05/31 05:57:32;;;;;;;16.38;8.13;;;13.20;99.90;;;;;;5068104;28;20036;-63
2023/05/31 05:59:58;;;;;;;19.45;8.27;;;13.30;99.90;;;;;;5065519;28;20033;-63
2023/05/31 06:02:23;;;;;;;18.63;8.18;;;13.40;99.90;;;;;;5069634;28;20035;-63
2023/05/31 06:04:49;;;;;;;18.08;8.07;;;13.40;99.90;;;;;;5052171;28;20166;-62
2023/05/31 06:07:19;;;;;;;16.75;9.25;;;13.50;99.90;;;;;;5065190;28;20051;-63
2023/05/31 06:09:45;;;;;;;16.42;8.20;;;13.60;99.90;;;;;;5067031;28;20044;-63
2023/05/31 06:12:12;;;;;;;13.07;7.05;;;13.60;99.90;;;;;;5061799;28;20043;-62
2023/05/31 06:14:37;;;;;;;20.40;7.57;;;13.70;99.90;;;;;;5066156;28;20040;-63
2023/05/31 06:17:03;;;;;;;16.65;8.48;;;13.80;99.90;;;;;;5063688;28;20036;-63
2023/05/31 06:19:29;;;;;;;14.90;7.80;;;13.90;99.90;;;;;;5061439;28;20059;-63
2023/05/31 06:21:57;;;;;;;15.02;7.90;;;14.00;99.90;;;;;;5066611;28;20075;-63
2023/05/31 06:24:23;;;;;;;16.73;8.25;;;14.10;99.90;;;;;;5069046;28;20048;-63
2023/05/31 06:26:49;;;;;;;18.55;8.02;;;14.20;99.90;;;;;;5069387;28;20157;-64
2023/05/31 06:29:14;;;;;;;14.60;8.02;;;14.30;99.90;;;;;;5086154;28;20141;-63
2023/05/31 06:31:42;;;;;;;12.93;7.38;;;14.30;99.90;;;;;;5066774;28;20560;-63
2023/05/31 06:34:08;;;;;;;15.25;7.70;;;14.40;99.90;;;;;;5086361;28;20055;-63
2023/05/31 06:36:35;;;;;;;15.38;7.45;;;14.40;99.90;;;;;;5068217;28;20040;-64
2023/05/31 06:39:00;;;;;;;15.18;7.00;;;14.50;99.90;;;;;;5088540;28;20052;-63
2023/05/31 06:41:27;;;;;;;13.75;7.93;;;14.60;99.90;;;;;;5083385;28;20143;-63
2023/05/31 06:43:53;;;;;;;15.20;7.30;;;14.60;99.90;;;;;;5067578;28;20059;-62
2023/05/31 06:46:19;;;;;;;13.77;7.40;;;14.70;99.90;;;;;;5086479;28;20036;-63
2023/05/31 06:48:44;;;;;;;13.05;7.15;;;14.90;99.90;;;;;;5067087;28;20128;-63
2023/05/31 06:51:10;;;;;;;10.93;6.90;;;15.00;99.90;;;;;;5054426;28;20036;-63
2023/05/31 06:53:36;;;;;;;13.00;6.72;;;15.00;99.90;;;;;;5071076;28;20272;-63
2023/05/31 06:56:02;;;;;;;11.55;6.10;;;15.10;99.90;;;;;;5072022;28;20305;-63
2023/05/31 06:58:31;;;;;;;14.45;6.95;;;15.20;99.90;;;;;;5088093;28;20101;-62
2023/05/31 07:00:57;;;;;;;10.93;6.65;;;15.20;99.90;;;;;;5063282;28;20044;-63
2023/05/31 07:03:23;;;;;;;11.27;6.40;;;15.30;99.90;;;;;;5069566;28;20097;-63
2023/05/31 07:05:49;;;;;;;12.63;6.75;;;15.40;99.90;;;;;;5087027;28;20533;-63
2023/05/31 07:08:15;;;;;;;11.90;5.85;;;15.50;99.90;;;;;;5058802;28;20048;-63
2023/05/31 07:10:41;;;;;;;13.98;5.82;;;15.60;99.90;;;;;;5082187;28;20044;-62
2023/05/31 07:13:07;;;;;;;12.23;5.63;;;15.70;99.90;;;;;;5052770;28;20035;-63
2023/05/31 07:15:36;;;;;;;10.57;5.18;;;15.70;99.90;;;;;;5084874;28;20612;-64
2023/05/31 07:18:01;;;;;;;8.77;5.30;;;15.80;99.90;;;;;;5064565;28;20036;-64
2023/05/31 07:20:27;;;;;;;10.23;4.75;;;15.90;99.90;;;;;;5049976;28;20047;-63
2023/05/31 07:22:53;;;;;;;14.18;5.32;;;15.90;99.90;;;;;;5076966;28;20039;-63
2023/05/31 07:25:19;;;;;;;10.45;5.20;;;16.00;99.90;;;;;;5054206;28;20032;-63
2023/05/31 07:27:45;;;;;;;8.43;4.80;;;16.10;99.90;;;;;;5069435;28;20106;-63
2023/05/31 07:30:10;;;;;;;13.40;4.45;;;16.20;99.90;;;;;;5053407;28;20032;-64
2023/05/31 07:32:36;;;;;;;15.00;4.80;;;16.30;99.90;;;;;;5053847;28;20318;-63
2023/05/31 07:35:03;;;;;;;12.30;4.75;;;16.50;99.90;;;;;;5052267;28;20502;-63
2023/05/31 07:37:29;;;;;;;11.25;4.50;;;16.50;99.90;;;;;;5071440;28;20044;-63
2023/05/31 07:39:55;;;;;;;10.00;5.53;;;16.60;99.90;;;;;;5069268;28;20048;-62
2023/05/31 07:42:20;;;;;;;7.20;4.55;;;16.60;99.90;;;;;;5085060;28;20109;-63
2023/05/31 07:44:48;;;;;;;9.55;4.45;;;16.60;99.90;;;;;;5032608;28;20151;-63
2023/05/31 07:47:15;;;;;;;10.63;4.80;;;16.70;99.90;;;;;;5071824;28;20067;-62
2023/05/31 07:49:41;;;;;;;10.93;4.40;;;16.70;99.90;;;;;;5071762;28;20278;-63
2023/05/31 07:52:07;;;;;;;8.73;4.40;;;16.80;99.90;;;;;;5060824;28;20036;-63
2023/05/31 07:54:33;;;;;;;8.90;3.47;;;16.90;99.90;;;;;;5061967;28;20036;-62
2023/05/31 07:56:58;;;;;;;10.05;3.85;;;17.00;99.90;;;;;;5064897;28;20043;-63
2023/05/31 07:59:25;;;;;;;11.10;3.53;;;17.20;99.90;;;;;;5062190;28;20335;-63
2023/05/31 08:01:51;;;;;;;9.27;3.75;;;17.30;99.90;;;;;;5044594;28;20043;-63
2023/05/31 08:04:16;;;;;;;6.15;2.88;;;17.30;99.90;;;;;;5065779;28;20041;-63
2023/05/31 08:06:42;;;;;;;8.85;2.80;;;17.40;99.90;;;;;;5069354;28;20036;-63
2023/05/31 08:09:08;;;;;;;5.40;2.95;;;17.50;99.90;;;;;;5071282;28;20062;-63
2023/05/31 08:11:35;;;;;;;7.28;3.10;;;17.50;99.90;;;;;;5049369;28;20051;-63
2023/05/31 08:14:05;;;;;;;8.43;3.50;;;17.60;99.90;;;;;;5064733;28;20058;-63
2023/05/31 08:16:32;;;;;;;7.32;3.05;;;17.60;99.90;;;;;;5045257;28;20517;-63
2023/05/31 08:18:57;;;;;;;6.55;2.80;;;17.70;99.90;;;;;;5069740;28;20149;-63
2023/05/31 08:21:23;;;;;;;8.30;3.30;;;17.60;99.90;;;;;;5058307;28;20059;-62
2023/05/31 08:23:49;;;;;;;7.63;2.83;;;17.60;99.90;;;;;;5068409;28;20502;-63
2023/05/31 08:26:15;;;;;;;6.80;2.80;;;17.90;99.90;;;;;;5063667;28;20043;-62
2023/05/31 08:28:41;;;;;;;7.70;3.40;;;18.00;99.90;;;;;;5073330;28;20529;-63
2023/05/31 08:31:07;;;;;;;7.85;3.72;;;18.00;99.90;;;;;;5069999;28;20129;-63
2023/05/31 08:33:33;;;;;;;5.88;3.03;;;18.00;99.90;;;;;;5070735;28;20059;-63
2023/05/31 08:35:59;;;;;;;54.47;21.45;;;18.10;99.90;;;;;;5067202;28;20036;-62
2023/05/31 08:38:28;;;;;;;6.30;2.65;;;18.10;99.90;;;;;;5052637;28;20344;-63
2023/05/31 08:40:57;;;;;;;5.55;2.75;;;18.10;99.90;;;;;;5067525;28;20486;-63
2023/05/31 08:43:26;;;;;;;7.35;2.65;;;18.10;99.90;;;;;;5052986;28;20044;-63
2023/05/31 08:45:52;;;;;;;7.53;2.80;;;18.00;99.90;;;;;;5062985;28;20663;-63
2023/05/31 08:48:33;;;;;;;5.63;2.90;;;18.00;99.90;;;;;;5065754;28;20048;-63
2023/05/31 08:51:00;;;;;;;7.57;3.53;;;18.30;99.90;;;;;;5064283;28;20126;-63
2023/05/31 08:53:27;;;;;;;13.23;4.30;;;18.30;99.90;;;;;;5080400;28;20044;-65
2023/05/31 08:55:53;;;;;;;7.57;2.80;;;18.60;99.90;;;;;;5066139;28;20199;-63
2023/05/31 08:58:19;;;;;;;7.43;3.28;;;18.50;99.90;;;;;;5071069;28;20040;-64
2023/05/31 09:00:46;;;;;;;10.43;3.00;;;18.60;99.90;;;;;;5067544;28;20043;-63
2023/05/31 09:03:12;;;;;;;7.40;3.03;;;18.70;99.90;;;;;;5062932;28;20130;-64
2023/05/31 09:05:38;;;;;;;11.32;3.50;;;18.70;99.90;;;;;;5044210;28;20525;-63
2023/05/31 09:08:05;;;;;;;8.18;2.97;;;18.80;99.90;;;;;;5056788;28;20073;-63
2023/05/31 09:10:30;;;;;;;9.88;3.67;;;19.00;99.90;;;;;;5046870;28;20447;-63
2023/05/31 09:12:57;;;;;;;9.23;3.03;;;19.10;99.90;;;;;;5020831;28;20040;-63
2023/05/31 09:15:24;;;;;;;14.35;3.97;;;19.10;99.90;;;;;;5085949;28;20040;-63
2023/05/31 09:17:50;;;;;;;11.95;3.67;;;18.90;99.90;;;;;;5061744;28;20706;-63
2023/05/31 09:20:17;;;;;;;13.43;4.40;;;18.70;99.90;;;;;;5062290;28;20052;-63
2023/05/31 09:22:49;;;;;;;11.98;4.18;;;18.50;99.90;;;;;;5047139;28;20039;-62
2023/05/31 09:25:15;;;;;;;11.60;3.53;;;18.50;99.90;;;;;;5049383;28;20044;-63
2023/05/31 09:27:41;;;;;;;11.68;4.63;;;18.60;99.90;;;;;;5070118;28;20047;-64
2023/05/31 09:30:12;;;;;;;14.95;4.97;;;18.60;99.90;;;;;;5055972;28;20044;-64
2023/05/31 09:32:38;;;;;;;13.05;4.93;;;18.70;99.90;;;;;;5070150;28;20058;-62
2023/05/31 09:35:11;;;;;;;10.77;4.30;;;18.50;99.90;;;;;;5060421;28;20046;-62
2023/05/31 09:37:48;;;;;;;10.43;4.45;;;18.40;99.90;;;;;;5067518;28;20058;-63
2023/05/31 09:40:15;;;;;;;16.52;6.00;;;18.40;99.90;;;;;;5054972;28;20047;-62
2023/05/31 09:42:50;;;;;;;18.98;4.90;;;18.50;99.90;;;;;;5062803;28;20032;-63
2023/05/31 09:45:17;;;;;;;13.60;5.15;;;18.40;99.90;;;;;;5085275;28;20045;-63
2023/05/31 09:47:43;;;;;;;15.35;5.35;;;18.30;99.90;;;;;;5059611;28;20040;-63
2023/05/31 09:50:16;;;;;;;14.05;5.35;;;18.20;99.90;;;;;;5060484;28;20093;-65
2023/05/31 09:52:47;;;;;;;17.52;5.50;;;18.20;99.90;;;;;;5060071;28;20048;-64
2023/05/31 09:55:15;;;;;;;13.55;6.10;;;18.30;99.90;;;;;;5083190;28;20170;-64
2023/05/31 09:57:43;;;;;;;14.05;5.57;;;18.30;99.90;;;;;;5065277;28;20044;-64
2023/05/31 10:00:17;;;;;;;13.70;5.55;;;18.40;99.90;;;;;;5067962;28;20047;-63
2023/05/31 10:02:49;;;;;;;10.30;5.10;;;18.60;99.90;;;;;;5048140;28;20032;-63
2023/05/31 10:05:16;;;;;;;17.10;6.05;;;18.70;99.90;;;;;;5069062;28;20044;-65
2023/05/31 10:07:52;;;;;;;13.38;5.35;;;18.70;99.90;;;;;;5062709;28;20425;-62
2023/05/31 10:10:20;;;;;;;18.77;6.18;;;18.60;99.90;;;;;;5081237;28;20467;-65
2023/05/31 10:12:58;;;;;;;13.02;6.10;;;18.70;99.90;;;;;;5062175;28;20047;-63
2023/05/31 10:15:27;;;;;;;13.90;5.32;;;18.60;99.90;;;;;;5065274;28;20852;-63
2023/05/31 10:18:01;;;;;;;10.63;5.35;;;18.70;99.90;;;;;;5046662;28;20044;-65
2023/05/31 10:20:55;;;;;;;13.60;6.53;;;18.90;99.90;;;;;;5061643;28;20097;-62
2023/05/31 10:23:23;;;;;;;17.13;6.45;;;19.00;99.90;;;;;;5052910;28;20145;-62
2023/05/31 10:26:06;;;;;;;14.70;5.30;;;19.20;99.90;;;;;;5056269;28;20113;-62
2023/05/31 10:28:37;;;;;;;11.75;5.80;;;19.30;99.90;;;;;;5072892;28;20071;-62
2023/05/31 10:31:04;;;;;;;11.98;5.47;;;19.20;99.90;;;;;;5062709;28;20079;-62
2023/05/31 10:33:31;;;;;;;13.25;6.07;;;19.30;99.90;;;;;;5043699;28;20032;-62
2023/05/31 10:36:00;;;;;;;13.52;4.93;;;19.30;99.90;;;;;;5058593;28;20032;-62
2023/05/31 10:38:59;;;;;;;14.88;6.72;;;19.30;99.90;;;;;;5055999;28;20040;-62
2023/05/31 10:41:32;;;;;;;11.63;5.10;;;19.40;99.90;;;;;;5037519;28;20051;-62
2023/05/31 10:44:05;;;;;;;8.98;4.80;;;19.20;99.90;;;;;;5062338;28;20126;-62
2023/05/31 10:46:34;;;;;;;8.27;5.47;;;19.10;99.90;;;;;;5059827;28;20055;-63
2023/05/31 10:49:02;;;;;;;10.32;5.13;;;19.30;99.90;;;;;;5056649;28;20090;-62
2023/05/31 10:51:46;;;;;;;8.70;5.10;;;19.30;99.90;;;;;;5061593;28;20038;-62
2023/05/31 10:54:25;;;;;;;;;;;19.50;99.90;;;;;;5053731;28;20037;-62
2023/05/31 10:56:55;;;;;;;14.20;5.07;;;19.60;99.90;;;;;;5043595;28;20022;-62
2023/05/31 11:07:32;;;;;;;10.68;5.50;;;19.70;99.90;;;;;;5093245;28;20034;-62
2023/05/31 11:09:59;;;;;;;14.00;5.75;;;19.50;99.90;;;;;;5056347;28;20033;-62
2023/05/31 11:12:52;;;;;;;10.95;5.40;;;19.60;99.90;;;;;;5048258;28;20032;-61
2023/05/31 11:15:18;;;;;;;9.18;4.20;;;19.60;99.90;;;;;;5063846;28;20113;-62
2023/05/31 11:17:52;;;;;;;10.05;5.43;;;19.80;99.90;;;;;;5069389;28;20453;-61
2023/05/31 11:20:18;;;;;;;;;;;19.90;99.90;;;;;;5053684;28;20040;-62
2023/05/31 11:22:44;;;;;;;7.90;4.70;;;19.90;99.90;;;;;;5063341;28;19919;-62
2023/05/31 11:25:20;;;;;;;11.48;5.13;;;20.00;99.90;;;;;;5050594;28;20525;-62
2023/05/31 11:27:48;;;;;;;7.45;4.43;;;20.10;99.90;;;;;;5060965;28;20184;-62
2023/05/31 11:30:17;;;;;;;8.23;4.65;;;20.30;99.90;;;;;;5062128;28;20048;-62
2023/05/31 11:32:43;;;;;;;8.35;3.80;;;20.10;99.90;;;;;;5067778;28;20032;-62
2023/05/31 11:35:18;;;;;;;7.57;3.88;;;20.00;99.90;;;;;;5042529;28;20043;-62
2023/05/31 11:37:44;;;;;;;8.23;4.88;;;20.00;99.90;;;;;;5060840;28;20471;-62
2023/05/31 11:40:13;;;;;;;9.70;4.82;;;20.10;99.90;;;;;;5068207;28;20043;-62
2023/05/31 11:42:40;;;;;;;8.75;5.20;;;20.00;99.90;;;;;;5068274;28;20043;-62
2023/05/31 11:45:10;;;;;;;8.95;5.50;;;20.00;99.90;;;;;;5049319;28;20052;-61
2023/05/31 11:47:39;;;;;;;11.35;5.43;;;20.00;99.90;;;;;;5061445;28;20089;-62
2023/05/31 11:50:05;;;;;;;10.20;5.10;;;20.10;99.90;;;;;;5033167;28;20048;-62
2023/05/31 11:52:31;;;;;;;12.60;5.85;;;20.20;99.90;;;;;;5057203;28;20036;-62
2023/05/31 11:55:05;;;;;;;10.10;5.43;;;20.40;99.90;;;;;;5041388;28;20055;-62
2023/05/31 11:57:41;;;;;;;12.65;5.43;;;20.40;99.90;;;;;;5046233;28;20043;-62
2023/05/31 12:00:11;;;;;;;16.63;7.80;;;20.30;99.90;;;;;;5072879;28;20495;-63
2023/05/31 12:02:46;;;;;;;11.10;6.65;;;20.30;99.90;;;;;;5057282;28;20046;-63
2023/05/31 12:05:12;;;;;;;8.80;5.57;;;20.30;99.90;;;;;;5071827;28;20055;-63
2023/05/31 12:07:38;;;;;;;11.18;6.03;;;20.20;99.90;;;;;;5059203;28;20434;-62
2023/05/31 12:10:08;;;;;;;14.18;6.15;;;20.20;99.90;;;;;;5044866;28;20575;-63
2023/05/31 12:12:35;;;;;;;10.65;4.78;;;20.20;99.90;;;;;;5065443;28;20031;-63
2023/05/31 12:15:02;;;;;;;11.20;5.55;;;20.10;99.90;;;;;;5047718;28;20102;-63
2023/05/31 12:17:31;;;;;;;9.20;5.63;;;20.10;99.90;;;;;;5062075;28;20437;-63
2023/05/31 12:19:57;;;;;;;13.93;5.53;;;20.20;99.90;;;;;;5064721;28;20129;-62
2023/05/31 12:22:22;;;;;;;10.38;6.13;;;20.20;99.90;;;;;;5041536;28;20039;-63
2023/05/31 12:24:52;;;;;;;13.38;7.43;;;20.50;99.90;;;;;;5048150;28;20035;-62
2023/05/31 12:27:21;;;;;;;13.68;7.88;;;20.50;99.90;;;;;;5064874;28;20086;-63
2023/05/31 12:29:46;;;;;;;16.73;7.68;;;20.40;99.90;;;;;;5046955;28;20102;-63
2023/05/31 12:32:12;;;;;;;10.35;6.57;;;20.40;99.90;;;;;;5059890;28;20048;-63
2023/05/31 12:34:39;;;;;;;8.32;6.88;;;20.50;99.90;;;;;;5059683;28;20036;-62
2023/05/31 12:48:24;;;;;;;12.52;6.35;;;20.80;99.90;;;;;;5085269;28;20026;-62
2023/05/31 12:50:49;;;;;;;8.23;4.75;;;20.80;99.90;;;;;;5050865;28;21967;-62
2023/05/31 12:53:16;;;;;;;10.10;5.53;;;20.90;99.90;;;;;;5059596;28;20121;-63
2023/05/31 12:55:42;;;;;;;10.70;6.00;;;21.10;99.70;;;;;;5040011;28;20044;-62
2023/05/31 12:58:08;;;;;;;11.25;5.10;;;21.00;99.50;;;;;;5060450;28;20036;-62
2023/05/31 13:00:34;;;;;;;10.07;5.80;;;21.20;99.80;;;;;;5066804;28;20036;-63
2023/05/31 13:03:00;;;;;;;10.82;6.35;;;21.40;99.60;;;;;;5065223;28;20036;-63
2023/05/31 13:05:25;;;;;;;11.45;6.25;;;21.30;99.30;;;;;;5066569;28;20043;-62
2023/05/31 13:07:52;;;;;;;10.27;5.63;;;21.40;99.60;;;;;;5061683;28;20036;-63
2023/05/31 13:10:18;;;;;;;15.45;6.75;;;21.60;99.80;;;;;;5063808;28;20040;-63
2023/05/31 13:12:44;;;;;;;9.65;6.10;;;21.80;99.30;;;;;;5072516;28;20084;-63
2023/05/31 13:15:10;;;;;;;10.13;6.63;;;21.80;99.30;;;;;;5055515;28;20068;-63